Time;durP1;ratioP1;P1;durP2;ratioP2;P2;SDS_P1;SDS_P2;PMS_P1;PMS_P2;Temp;Humidity;BMP_temperature;BMP_pressure;BME280_temperature;BME280_humidity;BME280_pressure;Samples;Min_cycle;Max_cycle;Signal;HPM_P1;HPM_P2
2021/07/27 00:01:10;;;;;;;11.20;7.70;;;20.30;97.30;;;;;;5027821;28;20192;-79
2021/07/27 00:03:38;;;;;;;12.10;7.80;;;20.30;97.30;;;;;;5035435;28;20177;-80
2021/07/27 00:06:09;;;;;;;10.13;7.60;;;20.30;97.30;;;;;;5034289;28;20785;-80
2021/07/27 00:08:36;;;;;;;8.90;7.40;;;20.30;97.30;;;;;;5033980;28;20423;-80
2021/07/27 00:11:06;;;;;;;12.60;7.13;;;20.20;97.30;;;;;;5033861;28;20554;-80
2021/07/27 00:13:33;;;;;;;14.70;8.10;;;20.20;97.30;;;;;;5017645;28;20670;-80
2021/07/27 00:15:59;;;;;;;9.77;7.17;;;20.20;97.30;;;;;;5033662;28;20411;-79
2021/07/27 00:18:24;;;;;;;10.30;6.70;;;20.10;97.30;;;;;;5033826;28;20421;-79
2021/07/27 00:20:50;;;;;;;14.30;6.30;;;20.10;97.30;;;;;;5034143;28;20275;-80
2021/07/27 00:23:16;;;;;;;13.60;7.77;;;20.10;97.30;;;;;;5034418;28;20185;-80
2021/07/27 00:25:43;;;;;;;11.67;7.23;;;20.10;97.30;;;;;;5033706;28;20177;-79
2021/07/27 00:28:10;;;;;;;13.40;8.17;;;20.10;97.30;;;;;;5033807;28;20435;-80
2021/07/27 00:30:36;;;;;;;13.70;7.17;;;20.10;97.30;;;;;;5033624;28;20581;-80
2021/07/27 00:33:01;;;;;;;9.43;7.10;;;20.10;97.30;;;;;;5033272;28;20475;-80
2021/07/27 00:35:29;;;;;;;10.70;7.23;;;20.00;97.30;;;;;;5035565;28;20180;-79
2021/07/27 00:38:10;;;;;;;13.87;8.07;;;20.00;97.30;;;;;;5037244;28;20177;-80
2021/07/27 00:40:36;;;;;;;16.73;8.40;;;20.00;97.30;;;;;;5038016;28;20419;-79
2021/07/27 00:43:07;;;;;;;10.30;7.90;;;20.00;97.30;;;;;;5037449;28;20832;-80
2021/07/27 00:45:32;;;;;;;10.27;7.60;;;19.90;97.30;;;;;;5037664;28;20453;-79
2021/07/27 00:47:58;;;;;;;10.90;7.30;;;19.80;97.30;;;;;;5038556;28;20415;-80
2021/07/27 00:50:25;;;;;;;10.63;7.23;;;19.80;97.30;;;;;;5037963;28;20181;-79
2021/07/27 00:52:53;;;;;;;10.37;7.50;;;19.80;97.30;;;;;;5037134;28;20212;-79
2021/07/27 00:55:19;;;;;;;10.23;6.90;;;19.80;97.30;;;;;;5036273;28;20921;-79
2021/07/27 00:57:44;;;;;;;11.63;7.47;;;19.70;97.30;;;;;;5037252;28;20455;-80
2021/07/27 01:00:12;;;;;;;11.30;7.60;;;19.70;97.30;;;;;;5036931;28;20255;-80
2021/07/27 01:02:37;;;;;;;11.50;7.37;;;19.70;97.30;;;;;;5036224;28;20196;-79
2021/07/27 01:05:04;;;;;;;9.03;6.40;;;19.60;97.30;;;;;;5035264;28;20549;-79
2021/07/27 01:07:30;;;;;;;13.63;7.33;;;19.50;97.30;;;;;;5037009;28;20183;-79
2021/07/27 01:09:56;;;;;;;10.43;6.70;;;19.50;97.30;;;;;;5037921;28;20962;-79
2021/07/27 01:12:21;;;;;;;11.23;7.27;;;19.50;97.30;;;;;;5037870;28;20471;-79
2021/07/27 01:14:47;;;;;;;12.57;7.10;;;19.50;97.30;;;;;;5036558;28;20173;-79
2021/07/27 01:17:12;;;;;;;9.77;7.00;;;19.40;97.30;;;;;;5036520;28;20183;-79
2021/07/27 01:44:01;;;;;;;10.10;6.20;;;19.30;97.30;;;;;;5027802;28;20424;-79
2021/07/27 01:46:27;;;;;;;10.00;6.70;;;19.30;97.30;;;;;;5034100;28;20176;-79
2021/07/27 01:48:53;;;;;;;10.80;7.17;;;19.20;97.30;;;;;;5035744;28;20415;-79
2021/07/27 01:51:19;;;;;;;9.73;7.20;;;19.20;97.30;;;;;;5035080;28;20464;-79
2021/07/27 01:53:50;;;;;;;12.80;7.60;;;19.20;97.30;;;;;;5035088;28;20700;-79
2021/07/27 01:56:16;;;;;;;15.90;7.33;;;19.20;97.30;;;;;;5035308;28;20956;-80
2021/07/27 01:58:43;;;;;;;11.40;6.90;;;19.10;97.30;;;;;;5035428;28;20435;-79
2021/07/27 02:01:10;;;;;;;11.53;7.17;;;19.10;97.30;;;;;;5036203;28;21040;-79
2021/07/27 02:03:36;;;;;;;15.13;7.00;;;19.10;97.30;;;;;;5035898;28;20434;-79
2021/07/27 02:06:01;;;;;;;13.10;7.37;;;19.10;97.30;;;;;;5036916;28;20422;-79
2021/07/27 02:08:27;;;;;;;10.23;7.10;;;19.00;97.30;;;;;;5035725;28;20183;-79
2021/07/27 02:10:57;;;;;;;9.73;7.07;;;19.00;97.30;;;;;;5034782;28;20226;-79
2021/07/27 02:13:33;;;;;;;10.13;6.63;;;19.00;97.30;;;;;;5035315;28;20172;-79
2021/07/27 02:16:00;;;;;;;13.53;7.03;;;18.90;97.30;;;;;;5035682;28;20411;-79
2021/07/27 02:18:26;;;;;;;14.90;8.20;;;18.90;97.30;;;;;;5035018;28;20925;-80
2021/07/27 02:20:52;;;;;;;13.57;7.70;;;18.90;97.30;;;;;;5035190;28;20485;-79
2021/07/27 02:23:19;;;;;;;13.93;6.97;;;18.80;97.30;;;;;;5037074;28;20419;-79
2021/07/27 02:25:44;;;;;;;10.00;7.00;;;18.80;97.30;;;;;;5036130;28;20546;-79
2021/07/27 02:28:13;;;;;;;11.53;7.50;;;18.80;97.30;;;;;;5035894;28;20438;-79
2021/07/27 02:30:50;;;;;;;10.83;7.50;;;18.70;97.30;;;;;;5034817;28;20300;-79
2021/07/27 02:33:19;;;;;;;11.80;7.83;;;18.70;97.30;;;;;;5036190;28;20419;-79
2021/07/27 02:35:45;;;;;;;11.10;7.00;;;18.70;97.30;;;;;;5034623;28;20411;-80
2021/07/27 02:38:11;;;;;;;12.73;7.27;;;18.70;97.30;;;;;;5034702;28;20924;-79
2021/07/27 02:40:36;;;;;;;11.63;7.43;;;18.70;97.30;;;;;;5034397;28;20180;-79
2021/07/27 02:43:04;;;;;;;17.23;7.10;;;18.60;97.30;;;;;;5034661;28;20210;-78
2021/07/27 02:45:33;;;;;;;10.40;6.33;;;18.70;97.30;;;;;;5036448;28;20169;-79
2021/07/27 02:47:59;;;;;;;11.47;7.10;;;18.70;97.30;;;;;;5034815;28;20434;-79
2021/07/27 02:50:28;;;;;;;13.27;6.90;;;18.60;97.30;;;;;;5034352;28;20492;-80
2021/07/27 02:52:54;;;;;;;10.73;7.47;;;18.60;97.30;;;;;;5034144;28;20220;-79
2021/07/27 02:55:20;;;;;;;11.43;7.07;;;18.60;97.30;;;;;;5033952;28;20935;-79
2021/07/27 02:57:48;;;;;;;11.13;6.70;;;18.60;97.30;;;;;;5034172;28;20181;-79
2021/07/27 03:00:15;;;;;;;10.70;6.53;;;18.70;97.30;;;;;;5034168;28;20419;-79
2021/07/27 03:02:44;;;;;;;12.73;6.80;;;18.70;97.30;;;;;;5034019;28;20439;-79
2021/07/27 03:05:11;;;;;;;9.87;6.50;;;18.70;97.30;;;;;;5034305;28;20462;-79
2021/07/27 03:10:18;;;;;;;10.63;6.67;;;18.70;97.30;;;;;;5035775;28;20541;-79
2021/07/27 03:12:54;;;;;;;13.37;6.83;;;18.80;97.30;;;;;;5034247;28;20848;-79
2021/07/27 03:15:26;;;;;;;12.50;6.87;;;18.80;97.30;;;;;;5036253;28;20414;-79
2021/07/27 03:17:54;;;;;;;9.27;6.30;;;18.70;97.30;;;;;;5017811;28;20812;-79
2021/07/27 03:20:20;;;;;;;9.70;6.77;;;18.70;97.30;;;;;;5033193;28;20957;-79
2021/07/27 03:22:46;;;;;;;11.50;6.87;;;18.70;97.30;;;;;;5033779;28;20482;-80
2021/07/27 03:25:15;;;;;;;11.50;7.77;;;18.60;97.30;;;;;;5034494;28;20423;-80
2021/07/27 03:27:41;;;;;;;9.97;6.73;;;18.60;97.30;;;;;;5034051;28;20176;-80
2021/07/27 03:30:07;;;;;;;11.70;7.10;;;18.60;97.30;;;;;;5034101;28;20473;-79
2021/07/27 03:32:34;;;;;;;11.97;6.73;;;18.60;97.30;;;;;;5034039;28;20471;-80
2021/07/27 03:35:00;;;;;;;8.73;6.50;;;18.50;97.30;;;;;;5033756;28;20421;-79
2021/07/27 03:37:25;;;;;;;8.50;6.67;;;18.50;97.30;;;;;;5035103;28;20455;-80
2021/07/27 03:39:51;;;;;;;9.87;6.33;;;18.50;97.30;;;;;;5033490;28;20213;-80
2021/07/27 03:42:17;;;;;;;9.23;6.40;;;18.40;97.30;;;;;;5034883;28;20210;-79
2021/07/27 03:44:42;;;;;;;11.70;6.70;;;18.30;97.30;;;;;;5034338;28;20551;-80
2021/07/27 03:47:08;;;;;;;9.60;7.30;;;18.30;97.30;;;;;;5033821;28;20198;-80
2021/07/27 03:49:34;;;;;;;10.90;7.60;;;18.20;97.30;;;;;;5034503;28;20203;-80
2021/07/27 03:52:00;;;;;;;10.70;6.40;;;18.20;97.30;;;;;;5033427;28;20208;-79
2021/07/27 03:54:31;;;;;;;10.50;7.20;;;18.20;97.30;;;;;;5033426;28;20502;-80
2021/07/27 03:56:57;;;;;;;12.27;6.73;;;18.20;97.30;;;;;;5034063;28;20427;-80
2021/07/27 03:59:22;;;;;;;12.13;6.30;;;18.20;97.30;;;;;;5034337;28;20534;-80
2021/07/27 04:01:49;;;;;;;13.33;7.40;;;18.20;97.30;;;;;;5033254;28;20609;-80
2021/07/27 04:04:17;;;;;;;10.23;7.20;;;18.20;97.30;;;;;;5035033;28;20173;-80
2021/07/27 04:06:47;;;;;;;11.00;6.80;;;18.30;97.30;;;;;;5033527;28;20419;-80
2021/07/27 04:09:12;;;;;;;13.73;7.30;;;18.20;97.30;;;;;;5033670;28;20569;-80
2021/07/27 04:11:38;;;;;;;11.70;7.20;;;18.20;97.30;;;;;;5038101;28;20516;-79
2021/07/27 04:14:05;;;;;;;9.93;7.00;;;18.30;97.30;;;;;;5037788;28;20208;-79
2021/07/27 04:16:30;;;;;;;9.90;6.57;;;18.30;97.30;;;;;;5037969;28;20168;-79
2021/07/27 04:18:56;;;;;;;10.20;6.70;;;18.30;97.30;;;;;;5037979;28;20417;-79
2021/07/27 04:21:22;;;;;;;14.90;6.50;;;18.30;97.30;;;;;;5037496;28;20200;-80
2021/07/27 04:23:47;;;;;;;11.10;7.00;;;18.30;97.30;;;;;;5029951;28;20730;-80
2021/07/27 04:26:13;;;;;;;12.63;7.00;;;18.30;97.30;;;;;;5031769;28;20200;-80
2021/07/27 04:28:38;;;;;;;13.70;6.77;;;18.30;97.30;;;;;;5035011;28;20524;-80
2021/07/27 04:31:05;;;;;;;9.37;6.93;;;18.30;97.30;;;;;;5031228;28;20681;-82
2021/07/27 04:33:30;;;;;;;9.70;7.00;;;18.20;97.30;;;;;;5035211;28;20568;-79
2021/07/27 04:35:56;;;;;;;14.00;7.03;;;18.30;97.30;;;;;;5037952;28;20423;-79
2021/07/27 04:38:22;;;;;;;11.83;7.33;;;18.30;97.30;;;;;;5030365;28;20262;-79
2021/07/27 04:40:52;;;;;;;13.00;6.80;;;18.30;97.30;;;;;;5025828;28;20188;-78
2021/07/27 04:43:17;;;;;;;10.83;6.57;;;18.30;97.30;;;;;;5037765;28;20530;-79
2021/07/27 04:45:43;;;;;;;12.63;7.00;;;18.30;97.30;;;;;;5036810;28;20513;-79
2021/07/27 04:48:08;;;;;;;10.83;6.30;;;18.30;97.30;;;;;;5035563;28;20247;-79
2021/07/27 04:50:38;;;;;;;13.17;7.37;;;18.30;97.30;;;;;;5036920;28;20246;-79
2021/07/27 04:53:09;;;;;;;8.63;6.70;;;18.30;97.30;;;;;;5036644;28;20216;-80
2021/07/27 04:55:36;;;;;;;11.93;6.30;;;18.30;97.30;;;;;;5036438;28;20427;-79
2021/07/27 04:58:04;;;;;;;9.00;6.33;;;18.40;97.30;;;;;;5037393;28;20420;-80
2021/07/27 05:00:30;;;;;;;16.47;7.20;;;18.40;97.30;;;;;;5038413;28;20434;-79
2021/07/27 05:02:57;;;;;;;10.60;7.37;;;18.40;97.30;;;;;;5037688;28;20444;-80
2021/07/27 05:05:24;;;;;;;14.43;7.70;;;18.50;97.30;;;;;;5036730;28;20172;-82
2021/07/27 05:07:51;;;;;;;11.80;7.23;;;18.50;97.30;;;;;;5037161;28;20427;-80
2021/07/27 05:10:18;;;;;;;10.47;6.60;;;18.50;97.30;;;;;;5036953;28;20419;-81
2021/07/27 05:12:43;;;;;;;11.63;7.27;;;18.60;97.30;;;;;;5036569;28;20979;-80
2021/07/27 05:15:09;;;;;;;15.90;6.40;;;18.60;97.30;;;;;;5036575;28;20439;-80
2021/07/27 05:17:35;;;;;;;12.30;7.73;;;18.70;97.30;;;;;;5036458;28;20634;-80
2021/07/27 05:20:02;;;;;;;10.80;6.80;;;18.80;97.30;;;;;;5035796;28;20177;-80
2021/07/27 05:22:28;;;;;;;12.13;6.53;;;18.80;97.30;;;;;;5036714;28;20526;-81
2021/07/27 05:24:54;;;;;;;15.43;6.87;;;18.80;97.30;;;;;;5037045;28;20432;-80
2021/07/27 05:27:22;;;;;;;11.67;7.60;;;18.90;97.30;;;;;;5035799;28;20184;-81
2021/07/27 05:29:49;;;;;;;12.30;7.17;;;18.90;97.30;;;;;;5032888;28;20420;-81
2021/07/27 05:32:14;;;;;;;14.00;7.10;;;19.00;97.30;;;;;;5015840;28;20464;-80
2021/07/27 05:34:40;;;;;;;9.60;6.43;;;19.00;97.30;;;;;;5016069;28;20535;-80
2021/07/27 05:37:06;;;;;;;11.50;6.93;;;19.10;97.30;;;;;;5035097;28;20193;-81
2021/07/27 05:39:32;;;;;;;10.03;7.13;;;19.10;97.30;;;;;;5036499;28;20177;-80
2021/07/27 05:41:57;;;;;;;15.47;7.37;;;19.20;97.30;;;;;;5036053;28;20436;-81
2021/07/27 05:44:26;;;;;;;10.07;6.67;;;19.20;97.30;;;;;;5034860;28;20415;-80
2021/07/27 05:46:56;;;;;;;10.73;6.57;;;19.30;97.30;;;;;;5036426;28;20646;-80
2021/07/27 05:49:22;;;;;;;12.80;6.93;;;19.30;97.30;;;;;;5035620;28;20459;-80
2021/07/27 05:51:48;;;;;;;11.40;6.63;;;19.40;97.30;;;;;;5036024;28;20509;-80
2021/07/27 05:54:15;;;;;;;10.93;6.97;;;19.40;97.30;;;;;;5035776;28;20466;-80
2021/07/27 05:56:41;;;;;;;13.10;7.50;;;19.40;97.30;;;;;;5035589;28;20431;-81
2021/07/27 05:59:07;;;;;;;16.30;6.80;;;19.50;97.30;;;;;;5034843;28;20803;-80
2021/07/27 06:01:32;;;;;;;13.13;6.47;;;19.50;97.30;;;;;;5035810;28;20459;-81
2021/07/27 06:03:58;;;;;;;10.13;7.00;;;19.60;97.30;;;;;;5034703;28;20184;-80
2021/07/27 06:06:24;;;;;;;15.47;7.20;;;19.70;97.30;;;;;;5035293;28;20184;-80
2021/07/27 06:08:49;;;;;;;11.60;7.40;;;19.70;97.30;;;;;;5036471;28;20431;-81
2021/07/27 06:11:15;;;;;;;30.23;7.23;;;19.80;97.30;;;;;;5035789;28;20600;-80
2021/07/27 06:13:41;;;;;;;11.60;8.00;;;19.80;97.30;;;;;;5026708;28;20216;-80
2021/07/27 06:16:07;;;;;;;10.00;6.57;;;19.90;97.30;;;;;;5021720;28;20240;-79
2021/07/27 06:18:33;;;;;;;12.10;6.73;;;20.00;97.30;;;;;;5026925;28;20213;-81
2021/07/27 06:21:00;;;;;;;9.90;6.10;;;20.00;97.30;;;;;;5028906;28;20566;-81
2021/07/27 06:23:25;;;;;;;11.97;6.23;;;20.10;97.30;;;;;;5027691;28;20502;-80
2021/07/27 06:25:51;;;;;;;12.80;6.57;;;20.20;97.30;;;;;;5026479;28;20455;-80
2021/07/27 06:28:17;;;;;;;10.00;6.40;;;20.20;97.30;;;;;;5027272;28;20393;-81
2021/07/27 06:30:42;;;;;;;9.60;6.27;;;20.30;97.30;;;;;;5029868;28;20187;-80
2021/07/27 06:33:08;;;;;;;15.77;6.40;;;20.40;97.30;;;;;;5025454;28;20407;-80
2021/07/27 06:35:34;;;;;;;11.10;7.07;;;20.50;97.30;;;;;;5019067;28;20185;-81
2021/07/27 06:37:59;;;;;;;19.07;6.80;;;20.50;97.30;;;;;;5017961;28;20172;-80
2021/07/27 06:40:25;;;;;;;11.30;6.97;;;20.60;97.30;;;;;;5020518;28;20181;-80
2021/07/27 06:42:50;;;;;;;10.30;6.30;;;20.70;97.30;;;;;;5018463;28;20717;-80
2021/07/27 06:45:16;;;;;;;11.03;5.93;;;20.80;97.30;;;;;;5035134;28;20182;-81
2021/07/27 06:47:42;;;;;;;8.63;5.83;;;20.80;97.30;;;;;;5034643;28;20181;-81
2021/07/27 06:50:08;;;;;;;11.13;6.20;;;20.90;97.30;;;;;;5036062;28;20185;-81
2021/07/27 06:52:38;;;;;;;9.27;6.20;;;21.00;97.30;;;;;;5034878;28;20212;-81
2021/07/27 06:55:05;;;;;;;7.83;6.07;;;21.10;97.30;;;;;;5034784;28;20527;-80
2021/07/27 06:57:31;;;;;;;9.20;6.20;;;21.10;97.30;;;;;;5034162;28;20434;-81
2021/07/27 06:59:56;;;;;;;14.30;6.20;;;21.20;97.30;;;;;;5032500;28;20411;-81
2021/07/27 07:02:24;;;;;;;7.70;5.67;;;21.30;97.30;;;;;;5035399;28;20231;-81
2021/07/27 07:04:49;;;;;;;10.63;5.90;;;21.40;97.30;;;;;;5033715;28;20188;-82
2021/07/27 07:07:15;;;;;;;8.30;5.57;;;21.50;97.30;;;;;;5033462;28;20419;-81
2021/07/27 07:09:41;;;;;;;9.97;5.80;;;21.50;97.30;;;;;;5034431;28;20195;-81
2021/07/27 07:12:08;;;;;;;7.60;5.63;;;21.60;97.30;;;;;;5034320;28;20218;-81
2021/07/27 07:14:33;;;;;;;11.40;6.17;;;21.70;97.30;;;;;;5034401;28;20180;-81
2021/07/27 07:16:59;;;;;;;7.90;5.60;;;21.80;97.30;;;;;;5035552;28;20478;-81
2021/07/27 07:19:24;;;;;;;9.77;6.27;;;21.90;97.30;;;;;;5034505;28;20542;-81
2021/07/27 07:21:50;;;;;;;10.00;6.20;;;22.00;97.30;;;;;;5034841;28;20772;-81
2021/07/27 07:24:16;;;;;;;9.03;6.30;;;22.10;97.30;;;;;;5033351;28;20180;-81
2021/07/27 07:26:41;;;;;;;6.50;5.70;;;22.10;97.30;;;;;;5035818;28;20191;-81
2021/07/27 07:29:07;;;;;;;9.00;5.87;;;22.20;97.30;;;;;;5033604;28;20180;-81
2021/07/27 07:31:32;;;;;;;6.80;5.57;;;22.20;97.30;;;;;;5034151;28;20208;-81
2021/07/27 07:33:59;;;;;;;10.30;5.90;;;22.30;97.30;;;;;;5033756;28;20235;-81
2021/07/27 07:36:24;;;;;;;13.97;5.87;;;22.40;97.30;;;;;;5034257;28;20650;-80
2021/07/27 07:38:50;;;;;;;9.60;5.60;;;22.50;97.30;;;;;;5035946;28;20422;-81
2021/07/27 07:41:16;;;;;;;7.53;5.93;;;22.50;97.30;;;;;;5033713;28;20204;-81
2021/07/27 07:43:41;;;;;;;7.00;5.40;;;22.60;97.30;;;;;;5034868;28;20203;-81
2021/07/27 07:46:07;;;;;;;11.03;4.67;;;22.60;97.30;;;;;;5038281;28;20251;-81
2021/07/27 07:48:33;;;;;;;6.83;5.27;;;22.60;97.30;;;;;;5037861;28;20697;-80
2021/07/27 07:50:58;;;;;;;9.47;5.87;;;22.60;97.30;;;;;;5031681;28;20208;-82
2021/07/27 07:53:24;;;;;;;12.83;5.53;;;22.70;97.30;;;;;;5037909;28;20208;-81
2021/07/27 07:55:50;;;;;;;10.33;4.80;;;22.70;97.30;;;;;;5037809;28;20188;-81
2021/07/27 07:58:15;;;;;;;7.40;4.90;;;22.80;97.30;;;;;;5038047;28;20259;-81
2021/07/27 08:00:41;;;;;;;6.77;5.10;;;22.90;97.30;;;;;;5038448;28;20207;-81
2021/07/27 08:03:07;;;;;;;7.27;4.70;;;23.00;97.30;;;;;;5039398;28;20638;-81
2021/07/27 08:05:32;;;;;;;7.53;4.87;;;23.10;97.30;;;;;;5037912;28;20188;-81
2021/07/27 08:07:58;;;;;;;7.93;4.20;;;23.20;97.30;;;;;;5038086;28;20185;-81
2021/07/27 08:10:24;;;;;;;8.87;5.23;;;23.30;97.30;;;;;;5037747;28;20180;-81
2021/07/27 08:12:50;;;;;;;6.13;4.37;;;23.40;96.50;;;;;;5038404;28;20220;-82
2021/07/27 08:15:16;;;;;;;5.70;4.37;;;23.40;96.90;;;;;;5036239;28;20176;-81
2021/07/27 08:17:42;;;;;;;8.53;5.37;;;23.50;97.00;;;;;;5036953;28;20175;-79
2021/07/27 08:20:09;;;;;;;5.57;4.30;;;23.60;96.10;;;;;;5037892;28;20435;-80
2021/07/27 08:22:39;;;;;;;6.23;4.87;;;23.60;95.60;;;;;;5038054;28;20530;-80
2021/07/27 08:25:06;;;;;;;6.07;4.40;;;23.70;95.10;;;;;;5037430;28;20928;-80
2021/07/27 08:27:32;;;;;;;6.63;4.47;;;23.70;95.50;;;;;;5037883;28;20510;-79
2021/07/27 08:29:58;;;;;;;7.27;4.60;;;23.70;95.00;;;;;;5037832;28;20450;-80
2021/07/27 08:32:23;;;;;;;6.30;4.23;;;23.80;95.10;;;;;;5038302;28;20211;-79
2021/07/27 08:34:49;;;;;;;7.07;4.90;;;23.80;95.20;;;;;;5037464;28;20656;-80
2021/07/27 08:37:14;;;;;;;11.83;4.43;;;23.90;94.50;;;;;;5037829;28;20172;-80
2021/07/27 08:39:40;;;;;;;5.03;4.27;;;24.00;92.90;;;;;;5037562;28;20169;-80
2021/07/27 08:42:07;;;;;;;5.77;4.43;;;24.00;92.20;;;;;;5037229;28;20291;-80
2021/07/27 08:44:36;;;;;;;7.17;5.03;;;23.90;92.50;;;;;;5038757;28;20569;-79
2021/07/27 08:47:06;;;;;;;7.60;4.33;;;23.90;93.30;;;;;;5037928;28;20833;-79
2021/07/27 08:49:33;;;;;;;8.87;4.33;;;23.90;93.60;;;;;;5036576;28;20423;-80
2021/07/27 08:51:59;;;;;;;6.40;4.33;;;23.90;93.70;;;;;;5036278;28;20463;-80
2021/07/27 08:54:25;;;;;;;6.50;4.40;;;23.80;91.90;;;;;;5037047;28;20955;-80
2021/07/27 08:56:52;;;;;;;6.37;4.13;;;23.70;92.50;;;;;;5036010;28;20435;-79
2021/07/27 08:59:20;;;;;;;4.77;4.07;;;23.60;92.90;;;;;;5037363;28;20608;-80
2021/07/27 09:01:45;;;;;;;6.40;4.43;;;23.50;94.00;;;;;;5035481;28;20451;-80
2021/07/27 09:04:11;;;;;;;8.63;5.00;;;23.60;93.70;;;;;;5037382;28;20431;-80
2021/07/27 09:06:37;;;;;;;4.43;4.03;;;23.70;93.50;;;;;;5037439;28;20203;-80
2021/07/27 09:09:10;;;;;;;8.37;4.90;;;23.80;94.10;;;;;;5037345;28;20427;-80
2021/07/27 09:11:47;;;;;;;7.53;5.03;;;23.90;93.50;;;;;;5035303;28;20212;-80
2021/07/27 09:14:19;;;;;;;4.83;3.80;;;23.90;93.70;;;;;;5037248;28;20422;-81
2021/07/27 09:16:50;;;;;;;9.47;4.57;;;23.90;93.20;;;;;;5036450;28;20491;-81
2021/07/27 09:19:16;;;;;;;7.37;4.33;;;23.90;92.90;;;;;;5036272;28;20777;-80
2021/07/27 09:21:42;;;;;;;4.93;4.30;;;24.00;92.20;;;;;;5033951;28;20534;-81
2021/07/27 09:24:22;;;;;;;5.10;3.87;;;24.00;91.40;;;;;;5038320;28;20473;-82
2021/07/27 09:27:02;;;;;;;5.20;3.97;;;24.10;90.40;;;;;;5041867;28;20462;-81
2021/07/27 09:29:29;;;;;;;5.30;4.73;;;24.10;90.50;;;;;;5040238;28;20629;-83
2021/07/27 09:31:57;;;;;;;4.83;4.13;;;24.20;92.50;;;;;;5037303;28;20523;-83
2021/07/27 09:34:27;;;;;;;5.93;4.43;;;24.30;93.00;;;;;;5038787;28;20436;-84
2021/07/27 09:37:00;;;;;;;6.10;4.60;;;24.50;91.70;;;;;;5039797;28;20427;-82
2021/07/27 09:39:26;;;;;;;7.30;4.90;;;24.60;91.30;;;;;;5020844;28;20436;-82
2021/07/27 09:42:09;;;;;;;9.30;5.17;;;24.50;90.10;;;;;;5031318;28;20995;-83
2021/07/27 09:44:38;;;;;;;6.57;4.50;;;24.60;91.00;;;;;;5032421;28;20266;-83
2021/07/27 09:47:05;;;;;;;5.00;4.10;;;24.50;88.90;;;;;;5037147;28;20431;-83
2021/07/27 09:49:31;;;;;;;6.37;4.73;;;24.40;89.10;;;;;;5038108;28;20951;-81
2021/07/27 09:51:57;;;;;;;7.10;4.80;;;24.30;90.20;;;;;;5037785;28;20546;-82
2021/07/27 09:54:26;;;;;;;6.90;4.50;;;24.30;91.20;;;;;;5037624;28;20720;-84
2021/07/27 09:56:53;;;;;;;10.83;5.07;;;24.30;91.80;;;;;;5037393;28;20419;-81
2021/07/27 09:59:21;;;;;;;6.20;4.30;;;24.50;91.10;;;;;;5037522;28;20423;-86
2021/07/27 10:02:05;;;;;;;7.70;5.20;;;24.70;93.10;;;;;;5037444;28;20505;-82
2021/07/27 10:04:37;;;;;;;8.60;4.50;;;24.80;90.20;;;;;;5037204;28;20419;-81
2021/07/27 10:07:05;;;;;;;5.90;4.70;;;24.80;91.20;;;;;;5037007;28;20530;-84
2021/07/27 10:09:33;;;;;;;7.80;5.13;;;24.80;91.30;;;;;;5038215;28;20403;-83
2021/07/27 10:12:10;;;;;;;5.80;4.53;;;24.80;91.10;;;;;;5036923;28;20463;-84
2021/07/27 10:14:44;;;;;;;7.40;4.60;;;24.70;90.70;;;;;;5027172;28;20427;-81
2021/07/27 10:17:11;;;;;;;5.43;4.80;;;24.70;91.40;;;;;;5018317;28;20416;-81
2021/07/27 10:19:45;;;;;;;7.10;4.73;;;24.90;90.70;;;;;;5035869;28;20450;-81
2021/07/27 10:22:11;;;;;;;5.90;4.13;;;25.00;89.70;;;;;;5029506;28;20840;-83
2021/07/27 10:24:43;;;;;;;5.63;5.10;;;25.00;89.50;;;;;;5028195;28;20497;-83
2021/07/27 10:27:29;;;;;;;8.43;4.27;;;25.10;90.80;;;;;;5026529;28;20453;-83
2021/07/27 10:30:05;;;;;;;7.03;4.20;;;25.20;90.40;;;;;;5025165;28;20415;-82
2021/07/27 10:32:31;;;;;;;4.10;3.60;;;25.30;89.30;;;;;;5030666;28;20892;-82
2021/07/27 10:34:56;;;;;;;5.70;4.53;;;25.30;88.90;;;;;;5026658;28;20408;-82
2021/07/27 10:37:22;;;;;;;5.83;4.43;;;25.10;88.80;;;;;;5030395;28;20180;-83
2021/07/27 10:39:58;;;;;;;6.43;4.33;;;25.00;88.20;;;;;;5026938;28;20169;-82
2021/07/27 10:42:24;;;;;;;8.03;4.33;;;24.90;89.20;;;;;;5033361;28;20195;-82
2021/07/27 10:44:52;;;;;;;6.73;4.60;;;24.80;89.40;;;;;;5031173;28;20424;-83
2021/07/27 10:47:19;;;;;;;4.97;4.10;;;24.80;91.00;;;;;;5024999;28;20423;-82
2021/07/27 10:49:45;;;;;;;4.60;4.10;;;24.90;89.70;;;;;;5028249;28;20434;-83
2021/07/27 10:52:13;;;;;;;5.47;4.17;;;24.90;89.30;;;;;;5025103;28;20460;-85
2021/07/27 10:54:44;;;;;;;8.30;4.20;;;25.00;90.90;;;;;;5018603;28;20177;-85
2021/07/27 10:57:12;;;;;;;4.97;4.10;;;25.00;89.70;;;;;;5028067;28;20510;-85
2021/07/27 10:59:44;;;;;;;5.57;3.90;;;25.10;90.20;;;;;;5030888;28;20925;-84
2021/07/27 11:02:12;;;;;;;9.47;4.60;;;25.10;88.90;;;;;;5030047;28;20812;-85
2021/07/27 11:04:38;;;;;;;5.13;4.37;;;25.10;89.40;;;;;;5023202;28;20427;-85
2021/07/27 11:07:16;;;;;;;4.97;4.27;;;25.10;90.00;;;;;;5030720;28;20430;-85
2021/07/27 11:09:49;;;;;;;7.13;3.70;;;25.20;88.50;;;;;;5032118;28;20411;-85
2021/07/27 11:12:33;;;;;;;13.73;4.67;;;25.20;89.50;;;;;;5029279;28;20459;-85
2021/07/27 11:15:07;;;;;;;5.20;4.33;;;25.20;89.40;;;;;;5024203;28;20459;-85
2021/07/27 11:17:32;;;;;;;5.17;4.23;;;25.10;88.30;;;;;;5030748;28;20427;-85
2021/07/27 11:19:59;;;;;;;4.73;4.10;;;25.00;88.90;;;;;;5030228;28;20484;-86
2021/07/27 11:22:26;;;;;;;5.10;4.30;;;25.00;89.60;;;;;;5030578;28;20291;-85
2021/07/27 11:24:54;;;;;;;7.17;4.60;;;25.00;88.90;;;;;;5030919;28;20497;-85
2021/07/27 11:27:28;;;;;;;5.50;4.53;;;25.00;88.70;;;;;;5030309;28;20858;-85
2021/07/27 11:30:02;;;;;;;6.93;4.23;;;25.10;90.20;;;;;;5032402;28;20787;-85
2021/07/27 11:33:06;;;;;;;5.00;4.27;;;25.30;88.30;;;;;;5031833;28;20470;-85
2021/07/27 11:35:46;;;;;;;9.73;4.60;;;25.40;88.60;;;;;;5022089;28;20502;-84
2021/07/27 11:38:29;;;;;;;6.10;4.30;;;25.30;88.80;;;;;;5029619;28;20434;-84
2021/07/27 11:41:06;;;;;;;5.43;4.33;;;25.50;89.30;;;;;;5032115;28;20862;-84
2021/07/27 11:43:34;;;;;;;5.97;4.30;;;25.70;89.70;;;;;;5027415;28;20944;-85
2021/07/27 11:46:19;;;;;;;4.87;4.03;;;25.90;87.30;;;;;;5031256;28;20435;-84
2021/07/27 11:48:54;;;;;;;4.80;3.93;;;25.90;88.10;;;;;;5028476;28;20781;-85
2021/07/27 11:51:36;;;;;;;5.80;4.10;;;25.90;86.90;;;;;;5032989;28;20763;-84
2021/07/27 11:54:02;;;;;;;4.87;4.63;;;25.90;87.50;;;;;;5032199;28;20553;-84
2021/07/27 11:56:28;;;;;;;5.67;4.10;;;25.80;86.40;;;;;;5028925;28;20447;-85
2021/07/27 11:59:05;;;;;;;8.93;4.70;;;25.70;87.50;;;;;;5030170;28;20230;-85
2021/07/27 12:01:43;;;;;;;5.67;4.30;;;25.70;88.70;;;;;;5030402;28;20446;-85
2021/07/27 12:04:10;;;;;;;8.80;5.63;;;25.70;87.70;;;;;;5030177;28;20470;-85
2021/07/27 12:07:05;;;;;;;6.30;5.10;;;25.80;87.90;;;;;;5029800;28;20415;-85
2021/07/27 12:09:30;;;;;;;7.07;4.60;;;26.00;86.30;;;;;;5021511;28;20420;-85
2021/07/27 12:11:56;;;;;;;5.50;4.70;;;26.10;85.90;;;;;;5030750;28;20817;-84
2021/07/27 12:14:21;;;;;;;5.60;4.47;;;26.30;85.60;;;;;;5030197;28;20268;-83
2021/07/27 12:16:50;;;;;;;5.17;4.33;;;26.30;86.20;;;;;;5029139;28;20263;-84
2021/07/27 12:19:16;;;;;;;7.97;4.30;;;26.30;87.00;;;;;;5029581;28;20180;-83
2021/07/27 12:21:41;;;;;;;6.13;4.43;;;26.30;86.60;;;;;;5030543;28;20446;-84
2021/07/27 12:24:07;;;;;;;8.80;4.70;;;26.20;86.30;;;;;;5029862;28;20210;-83
2021/07/27 12:26:35;;;;;;;6.03;4.20;;;26.10;87.30;;;;;;5030191;28;20661;-83
2021/07/27 12:29:01;;;;;;;5.60;4.53;;;26.20;87.00;;;;;;5029690;28;20183;-83
2021/07/27 12:31:26;;;;;;;6.07;4.97;;;26.20;86.90;;;;;;5031806;28;20457;-83
2021/07/27 12:33:52;;;;;;;6.87;4.47;;;26.30;86.60;;;;;;5033422;28;20427;-83
2021/07/27 12:36:18;;;;;;;5.10;4.20;;;26.30;85.60;;;;;;5033171;28;20168;-84
2021/07/27 12:38:43;;;;;;;6.53;4.27;;;26.30;85.70;;;;;;5033289;28;20190;-83
2021/07/27 12:41:09;;;;;;;10.30;5.17;;;26.20;85.70;;;;;;5033786;28;20188;-84
2021/07/27 12:43:35;;;;;;;5.53;4.63;;;26.20;86.70;;;;;;5033529;28;20661;-84
2021/07/27 12:46:00;;;;;;;6.60;4.80;;;26.10;85.80;;;;;;5033631;28;20215;-84
2021/07/27 12:48:26;;;;;;;5.53;4.63;;;26.00;85.40;;;;;;5033708;28;20422;-84
2021/07/27 12:50:52;;;;;;;7.67;4.87;;;25.90;86.00;;;;;;5034007;28;20176;-84
2021/07/27 12:53:17;;;;;;;6.53;5.03;;;25.90;86.00;;;;;;5033497;28;20698;-84
2021/07/27 12:56:22;;;;;;;6.23;4.77;;;26.00;86.50;;;;;;5085300;23;20233;-86
2021/07/27 12:58:53;;;;;;;5.70;5.30;;;26.20;85.60;;;;;;5014482;28;20181;-89
2021/07/27 13:01:25;;;;;;;7.10;5.00;;;26.10;85.60;;;;;;5016569;28;20436;-89
2021/07/27 13:06:24;;;;;;;6.27;4.60;;;26.00;85.90;;;;;;5023367;23;20488;-90
2021/07/27 13:08:53;;;;;;;7.83;5.20;;;25.90;84.80;;;;;;5016064;28;20184;-89
2021/07/27 13:11:36;;;;;;;8.47;5.10;;;25.90;85.80;;;;;;5015172;28;20475;-90
2021/07/27 13:14:06;;;;;;;7.43;4.70;;;26.00;85.40;;;;;;5033212;23;20420;-87
2021/07/27 13:16:32;;;;;;;8.23;4.37;;;26.10;86.10;;;;;;5001008;28;20435;-88